sensor_id;sensor_type;location;lat;lon;timestamp;P1;durP1;ratioP1;P2;durP2;ratioP2
18796;SDS011;9526;52.612;13.300;2023-07-16T00:00:18;6.10;;;3.05;;
18796;SDS011;9526;52.612;13.300;2023-07-16T00:02:47;3.28;;;2.40;;
18796;SDS011;9526;52.612;13.300;2023-07-16T00:05:11;3.00;;;2.35;;
18796;SDS011;9526;52.612;13.300;2023-07-16T00:07:36;3.92;;;2.60;;
18796;SDS011;9526;52.612;13.300;2023-07-16T00:10:01;3.63;;;2.53;;
18796;SDS011;9526;52.612;13.300;2023-07-16T00:12:25;4.97;;;2.95;;
18796;SDS011;9526;52.612;13.300;2023-07-16T00:14:48;2.97;;;2.50;;
18796;SDS011;9526;52.612;13.300;2023-07-16T00:17:12;3.85;;;2.70;;
18796;SDS011;9526;52.612;13.300;2023-07-16T00:19:36;2.92;;;2.63;;
18796;SDS011;9526;52.612;13.300;2023-07-16T00:22:00;3.95;;;2.50;;
18796;SDS011;9526;52.612;13.300;2023-07-16T00:24:23;3.10;;;2.70;;
18796;SDS011;9526;52.612;13.300;2023-07-16T00:26:48;4.22;;;2.30;;
18796;SDS011;9526;52.612;13.300;2023-07-16T00:29:12;3.15;;;2.45;;
18796;SDS011;9526;52.612;13.300;2023-07-16T00:31:36;3.05;;;2.42;;
18796;SDS011;9526;52.612;13.300;2023-07-16T00:33:59;3.53;;;2.33;;
18796;SDS011;9526;52.612;13.300;2023-07-16T00:36:24;2.97;;;2.53;;
18796;SDS011;9526;52.612;13.300;2023-07-16T00:38:47;4.85;;;2.70;;
18796;SDS011;9526;52.612;13.300;2023-07-16T00:41:12;5.63;;;2.50;;
18796;SDS011;9526;52.612;13.300;2023-07-16T00:43:37;3.28;;;2.65;;
18796;SDS011;9526;52.612;13.300;2023-07-16T00:46:01;5.45;;;2.33;;
18796;SDS011;9526;52.612;13.300;2023-07-16T00:48:25;3.72;;;2.40;;
18796;SDS011;9526;52.612;13.300;2023-07-16T00:50:49;2.65;;;2.42;;
18796;SDS011;9526;52.612;13.300;2023-07-16T00:53:13;3.25;;;2.53;;
18796;SDS011;9526;52.612;13.300;2023-07-16T00:55:38;3.33;;;2.53;;
18796;SDS011;9526;52.612;13.300;2023-07-16T00:58:03;2.85;;;2.47;;
18796;SDS011;9526;52.612;13.300;2023-07-16T01:00:30;3.53;;;2.78;;
18796;SDS011;9526;52.612;13.300;2023-07-16T01:02:53;3.95;;;2.80;;
18796;SDS011;9526;52.612;13.300;2023-07-16T01:05:18;3.08;;;2.78;;
18796;SDS011;9526;52.612;13.300;2023-07-16T01:07:42;3.45;;;2.70;;
18796;SDS011;9526;52.612;13.300;2023-07-16T01:10:18;3.45;;;2.50;;
18796;SDS011;9526;52.612;13.300;2023-07-16T01:12:43;2.83;;;2.40;;
18796;SDS011;9526;52.612;13.300;2023-07-16T01:15:08;3.67;;;2.65;;
18796;SDS011;9526;52.612;13.300;2023-07-16T01:17:34;4.28;;;2.72;;
18796;SDS011;9526;52.612;13.300;2023-07-16T01:19:58;5.50;;;2.70;;
18796;SDS011;9526;52.612;13.300;2023-07-16T01:22:30;4.25;;;2.90;;
18796;SDS011;9526;52.612;13.300;2023-07-16T01:25:10;3.33;;;2.80;;
18796;SDS011;9526;52.612;13.300;2023-07-16T01:31:17;5.57;;;3.38;;
18796;SDS011;9526;52.612;13.300;2023-07-16T01:33:43;3.45;;;2.95;;
18796;SDS011;9526;52.612;13.300;2023-07-16T01:36:08;6.75;;;4.00;;
18796;SDS011;9526;52.612;13.300;2023-07-16T01:38:32;4.30;;;3.00;;
18796;SDS011;9526;52.612;13.300;2023-07-16T01:40:55;3.90;;;3.25;;
18796;SDS011;9526;52.612;13.300;2023-07-16T01:43:19;3.97;;;3.20;;
18796;SDS011;9526;52.612;13.300;2023-07-16T01:45:43;6.47;;;3.80;;
18796;SDS011;9526;52.612;13.300;2023-07-16T01:48:13;5.53;;;3.83;;
18796;SDS011;9526;52.612;13.300;2023-07-16T01:50:47;6.35;;;3.72;;
18796;SDS011;9526;52.612;13.300;2023-07-16T01:53:11;5.10;;;3.83;;
18796;SDS011;9526;52.612;13.300;2023-07-16T01:55:34;5.50;;;3.75;;
18796;SDS011;9526;52.612;13.300;2023-07-16T01:57:58;4.28;;;3.42;;
18796;SDS011;9526;52.612;13.300;2023-07-16T02:00:22;5.30;;;3.55;;
18796;SDS011;9526;52.612;13.300;2023-07-16T02:02:46;4.95;;;3.65;;
18796;SDS011;9526;52.612;13.300;2023-07-16T02:05:11;5.65;;;3.90;;
18796;SDS011;9526;52.612;13.300;2023-07-16T02:07:35;4.88;;;3.40;;
18796;SDS011;9526;52.612;13.300;2023-07-16T02:10:00;4.93;;;3.75;;
18796;SDS011;9526;52.612;13.300;2023-07-16T02:12:26;5.40;;;3.80;;
18796;SDS011;9526;52.612;13.300;2023-07-16T02:14:50;3.80;;;3.30;;
18796;SDS011;9526;52.612;13.300;2023-07-16T02:17:13;4.30;;;3.42;;
18796;SDS011;9526;52.612;13.300;2023-07-16T02:19:37;4.38;;;3.50;;
18796;SDS011;9526;52.612;13.300;2023-07-16T02:22:02;5.20;;;3.60;;
18796;SDS011;9526;52.612;13.300;2023-07-16T02:24:26;3.85;;;3.35;;
18796;SDS011;9526;52.612;13.300;2023-07-16T02:26:50;6.25;;;3.92;;
18796;SDS011;9526;52.612;13.300;2023-07-16T02:29:13;7.75;;;3.70;;
18796;SDS011;9526;52.612;13.300;2023-07-16T02:31:38;8.13;;;3.28;;
18796;SDS011;9526;52.612;13.300;2023-07-16T02:34:03;7.47;;;3.50;;
18796;SDS011;9526;52.612;13.300;2023-07-16T02:36:27;3.85;;;3.13;;
18796;SDS011;9526;52.612;13.300;2023-07-16T02:38:52;5.80;;;3.60;;
18796;SDS011;9526;52.612;13.300;2023-07-16T02:41:16;3.72;;;3.15;;
18796;SDS011;9526;52.612;13.300;2023-07-16T02:43:40;4.05;;;3.20;;
18796;SDS011;9526;52.612;13.300;2023-07-16T02:46:03;5.43;;;3.38;;
18796;SDS011;9526;52.612;13.300;2023-07-16T02:48:27;3.97;;;3.38;;
18796;SDS011;9526;52.612;13.300;2023-07-16T02:50:51;6.40;;;3.15;;
18796;SDS011;9526;52.612;13.300;2023-07-16T02:53:15;7.63;;;3.35;;
18796;SDS011;9526;52.612;13.300;2023-07-16T02:55:40;3.75;;;2.95;;
18796;SDS011;9526;52.612;13.300;2023-07-16T02:58:03;3.80;;;3.30;;
18796;SDS011;9526;52.612;13.300;2023-07-16T03:00:27;4.40;;;2.97;;
18796;SDS011;9526;52.612;13.300;2023-07-16T03:02:51;5.18;;;3.08;;
18796;SDS011;9526;52.612;13.300;2023-07-16T03:05:15;3.47;;;3.10;;
18796;SDS011;9526;52.612;13.300;2023-07-16T03:07:39;3.50;;;3.00;;
18796;SDS011;9526;52.612;13.300;2023-07-16T03:10:03;5.13;;;2.90;;
18796;SDS011;9526;52.612;13.300;2023-07-16T03:12:29;3.90;;;2.83;;
18796;SDS011;9526;52.612;13.300;2023-07-16T03:14:53;4.10;;;3.13;;
18796;SDS011;9526;52.612;13.300;2023-07-16T03:17:17;3.08;;;2.45;;
18796;SDS011;9526;52.612;13.300;2023-07-16T03:19:40;2.90;;;2.60;;
18796;SDS011;9526;52.612;13.300;2023-07-16T03:22:04;4.63;;;3.08;;
18796;SDS011;9526;52.612;13.300;2023-07-16T03:24:28;4.68;;;3.30;;
18796;SDS011;9526;52.612;13.300;2023-07-16T03:26:52;6.35;;;3.10;;
18796;SDS011;9526;52.612;13.300;2023-07-16T03:29:35;4.72;;;2.95;;
18796;SDS011;9526;52.612;13.300;2023-07-16T03:32:00;3.22;;;2.65;;
18796;SDS011;9526;52.612;13.300;2023-07-16T03:34:24;3.80;;;2.78;;
18796;SDS011;9526;52.612;13.300;2023-07-16T03:36:48;3.67;;;2.75;;
18796;SDS011;9526;52.612;13.300;2023-07-16T03:39:11;5.28;;;3.25;;
18796;SDS011;9526;52.612;13.300;2023-07-16T03:41:35;4.07;;;3.03;;
18796;SDS011;9526;52.612;13.300;2023-07-16T03:43:59;4.82;;;3.10;;
18796;SDS011;9526;52.612;13.300;2023-07-16T03:46:27;4.85;;;3.17;;
18796;SDS011;9526;52.612;13.300;2023-07-16T03:48:51;4.70;;;3.47;;
18796;SDS011;9526;52.612;13.300;2023-07-16T03:51:16;6.32;;;3.35;;
18796;SDS011;9526;52.612;13.300;2023-07-16T03:53:40;3.90;;;3.05;;
18796;SDS011;9526;52.612;13.300;2023-07-16T03:56:04;5.25;;;3.33;;
18796;SDS011;9526;52.612;13.300;2023-07-16T03:58:29;3.90;;;3.13;;
18796;SDS011;9526;52.612;13.300;2023-07-16T04:00:55;6.93;;;3.35;;
18796;SDS011;9526;52.612;13.300;2023-07-16T04:03:21;6.47;;;3.50;;
18796;SDS011;9526;52.612;13.300;2023-07-16T04:05:45;5.38;;;3.80;;
18796;SDS011;9526;52.612;13.300;2023-07-16T04:08:09;4.03;;;3.35;;
18796;SDS011;9526;52.612;13.300;2023-07-16T04:10:33;5.18;;;3.38;;
18796;SDS011;9526;52.612;13.300;2023-07-16T04:12:56;4.85;;;3.42;;
18796;SDS011;9526;52.612;13.300;2023-07-16T04:15:20;6.05;;;3.30;;
18796;SDS011;9526;52.612;13.300;2023-07-16T04:17:44;5.00;;;3.38;;
18796;SDS011;9526;52.612;13.300;2023-07-16T04:20:09;5.47;;;3.40;;
18796;SDS011;9526;52.612;13.300;2023-07-16T04:22:33;4.22;;;3.13;;
18796;SDS011;9526;52.612;13.300;2023-07-16T04:24:58;5.47;;;3.35;;
18796;SDS011;9526;52.612;13.300;2023-07-16T04:27:21;6.90;;;3.25;;
18796;SDS011;9526;52.612;13.300;2023-07-16T04:29:45;4.00;;;3.15;;
18796;SDS011;9526;52.612;13.300;2023-07-16T04:32:09;4.05;;;3.03;;
18796;SDS011;9526;52.612;13.300;2023-07-16T04:34:32;5.18;;;3.45;;
18796;SDS011;9526;52.612;13.300;2023-07-16T04:36:57;4.25;;;3.15;;
18796;SDS011;9526;52.612;13.300;2023-07-16T04:39:21;3.35;;;2.92;;
18796;SDS011;9526;52.612;13.300;2023-07-16T04:41:45;5.55;;;3.22;;
18796;SDS011;9526;52.612;13.300;2023-07-16T04:44:08;3.53;;;3.00;;
18796;SDS011;9526;52.612;13.300;2023-07-16T04:46:32;5.18;;;3.05;;
18796;SDS011;9526;52.612;13.300;2023-07-16T04:48:56;4.93;;;3.00;;
18796;SDS011;9526;52.612;13.300;2023-07-16T04:51:19;4.55;;;3.33;;
18796;SDS011;9526;52.612;13.300;2023-07-16T04:53:44;4.32;;;3.38;;
18796;SDS011;9526;52.612;13.300;2023-07-16T04:56:10;4.88;;;3.22;;
18796;SDS011;9526;52.612;13.300;2023-07-16T04:58:35;3.92;;;3.13;;
18796;SDS011;9526;52.612;13.300;2023-07-16T05:00:59;3.65;;;3.00;;
18796;SDS011;9526;52.612;13.300;2023-07-16T05:03:22;3.63;;;3.25;;
18796;SDS011;9526;52.612;13.300;2023-07-16T05:05:50;3.75;;;3.25;;
18796;SDS011;9526;52.612;13.300;2023-07-16T05:08:13;3.35;;;2.67;;
18796;SDS011;9526;52.612;13.300;2023-07-16T05:10:39;4.05;;;3.45;;
18796;SDS011;9526;52.612;13.300;2023-07-16T05:13:02;3.85;;;2.83;;
18796;SDS011;9526;52.612;13.300;2023-07-16T05:15:26;5.25;;;3.28;;
18796;SDS011;9526;52.612;13.300;2023-07-16T05:17:49;3.22;;;2.60;;
18796;SDS011;9526;52.612;13.300;2023-07-16T05:20:13;4.38;;;3.10;;
18796;SDS011;9526;52.612;13.300;2023-07-16T05:22:37;4.97;;;3.33;;
18796;SDS011;9526;52.612;13.300;2023-07-16T05:25:01;6.55;;;3.63;;
18796;SDS011;9526;52.612;13.300;2023-07-16T05:27:27;3.83;;;3.30;;
18796;SDS011;9526;52.612;13.300;2023-07-16T05:29:51;4.30;;;3.20;;
18796;SDS011;9526;52.612;13.300;2023-07-16T05:32:14;4.18;;;3.10;;
18796;SDS011;9526;52.612;13.300;2023-07-16T05:34:38;4.63;;;3.08;;
18796;SDS011;9526;52.612;13.300;2023-07-16T05:37:01;3.90;;;3.20;;
18796;SDS011;9526;52.612;13.300;2023-07-16T05:39:26;3.75;;;3.20;;
18796;SDS011;9526;52.612;13.300;2023-07-16T05:41:49;4.13;;;3.28;;
18796;SDS011;9526;52.612;13.300;2023-07-16T05:44:14;5.68;;;3.42;;
18796;SDS011;9526;52.612;13.300;2023-07-16T05:46:38;3.80;;;3.00;;
18796;SDS011;9526;52.612;13.300;2023-07-16T05:49:02;5.97;;;3.33;;
18796;SDS011;9526;52.612;13.300;2023-07-16T05:51:26;4.03;;;3.08;;
18796;SDS011;9526;52.612;13.300;2023-07-16T05:53:50;5.78;;;3.40;;
18796;SDS011;9526;52.612;13.300;2023-07-16T05:56:13;5.82;;;3.47;;
18796;SDS011;9526;52.612;13.300;2023-07-16T05:58:37;4.80;;;3.15;;
18796;SDS011;9526;52.612;13.300;2023-07-16T06:01:03;3.95;;;3.40;;
18796;SDS011;9526;52.612;13.300;2023-07-16T06:03:27;4.78;;;3.55;;
18796;SDS011;9526;52.612;13.300;2023-07-16T06:05:51;3.53;;;3.10;;
18796;SDS011;9526;52.612;13.300;2023-07-16T06:08:15;3.50;;;3.05;;
18796;SDS011;9526;52.612;13.300;2023-07-16T06:10:38;2.90;;;2.60;;
18796;SDS011;9526;52.612;13.300;2023-07-16T06:13:02;4.50;;;3.15;;
18796;SDS011;9526;52.612;13.300;2023-07-16T06:15:26;3.60;;;3.08;;
18796;SDS011;9526;52.612;13.300;2023-07-16T06:17:51;4.95;;;3.10;;
18796;SDS011;9526;52.612;13.300;2023-07-16T06:20:14;3.72;;;2.85;;
18796;SDS011;9526;52.612;13.300;2023-07-16T06:22:38;3.72;;;3.30;;
18796;SDS011;9526;52.612;13.300;2023-07-16T06:25:02;3.58;;;2.90;;
18796;SDS011;9526;52.612;13.300;2023-07-16T06:27:27;3.50;;;3.20;;
18796;SDS011;9526;52.612;13.300;2023-07-16T06:29:50;3.45;;;3.00;;
18796;SDS011;9526;52.612;13.300;2023-07-16T06:32:14;3.08;;;2.63;;
18796;SDS011;9526;52.612;13.300;2023-07-16T06:34:39;3.67;;;2.72;;
18796;SDS011;9526;52.612;13.300;2023-07-16T06:37:03;3.67;;;2.80;;
18796;SDS011;9526;52.612;13.300;2023-07-16T06:39:28;3.75;;;2.83;;
18796;SDS011;9526;52.612;13.300;2023-07-16T06:41:53;3.40;;;2.90;;
18796;SDS011;9526;52.612;13.300;2023-07-16T06:44:17;3.17;;;2.63;;
18796;SDS011;9526;52.612;13.300;2023-07-16T06:46:40;4.97;;;2.70;;
18796;SDS011;9526;52.612;13.300;2023-07-16T06:49:05;3.53;;;2.33;;
18796;SDS011;9526;52.612;13.300;2023-07-16T06:51:30;2.67;;;2.40;;
18796;SDS011;9526;52.612;13.300;2023-07-16T06:53:54;3.45;;;2.78;;
18796;SDS011;9526;52.612;13.300;2023-07-16T06:56:17;3.03;;;2.42;;
18796;SDS011;9526;52.612;13.300;2023-07-16T06:58:41;3.65;;;2.40;;
18796;SDS011;9526;52.612;13.300;2023-07-16T07:01:05;3.80;;;2.50;;
18796;SDS011;9526;52.612;13.300;2023-07-16T07:03:29;2.58;;;2.30;;
18796;SDS011;9526;52.612;13.300;2023-07-16T07:05:55;4.28;;;2.58;;
18796;SDS011;9526;52.612;13.300;2023-07-16T07:08:20;3.20;;;2.70;;
18796;SDS011;9526;52.612;13.300;2023-07-16T07:10:43;2.83;;;2.40;;
18796;SDS011;9526;52.612;13.300;2023-07-16T07:13:07;4.90;;;2.70;;
18796;SDS011;9526;52.612;13.300;2023-07-16T07:15:31;3.78;;;2.63;;
18796;SDS011;9526;52.612;13.300;2023-07-16T07:17:54;3.63;;;2.60;;
18796;SDS011;9526;52.612;13.300;2023-07-16T07:20:18;3.17;;;2.55;;
18796;SDS011;9526;52.612;13.300;2023-07-16T07:22:42;3.97;;;2.45;;
18796;SDS011;9526;52.612;13.300;2023-07-16T07:25:07;3.00;;;2.55;;
18796;SDS011;9526;52.612;13.300;2023-07-16T07:27:31;3.03;;;2.45;;
18796;SDS011;9526;52.612;13.300;2023-07-16T07:29:55;3.40;;;2.45;;
18796;SDS011;9526;52.612;13.300;2023-07-16T07:32:18;4.60;;;2.80;;
18796;SDS011;9526;52.612;13.300;2023-07-16T07:34:42;3.95;;;2.97;;
18796;SDS011;9526;52.612;13.300;2023-07-16T07:37:06;3.85;;;2.30;;
18796;SDS011;9526;52.612;13.300;2023-07-16T07:39:30;3.63;;;2.40;;
18796;SDS011;9526;52.612;13.300;2023-07-16T07:41:55;2.50;;;2.30;;
18796;SDS011;9526;52.612;13.300;2023-07-16T07:44:19;2.95;;;2.55;;
18796;SDS011;9526;52.612;13.300;2023-07-16T07:46:42;2.55;;;2.35;;
18796;SDS011;9526;52.612;13.300;2023-07-16T07:49:06;3.90;;;2.20;;
18796;SDS011;9526;52.612;13.300;2023-07-16T07:51:30;3.33;;;2.22;;
18796;SDS011;9526;52.612;13.300;2023-07-16T07:53:53;3.92;;;2.00;;
18796;SDS011;9526;52.612;13.300;2023-07-16T07:56:17;2.50;;;2.20;;
18796;SDS011;9526;52.612;13.300;2023-07-16T07:58:42;2.40;;;2.00;;
18796;SDS011;9526;52.612;13.300;2023-07-16T08:01:06;3.72;;;2.33;;
18796;SDS011;9526;52.612;13.300;2023-07-16T08:03:30;4.90;;;2.70;;
18796;SDS011;9526;52.612;13.300;2023-07-16T08:05:54;2.70;;;1.98;;
18796;SDS011;9526;52.612;13.300;2023-07-16T08:08:18;1.83;;;1.73;;
18796;SDS011;9526;52.612;13.300;2023-07-16T08:10:41;4.30;;;2.03;;
18796;SDS011;9526;52.612;13.300;2023-07-16T08:13:07;2.38;;;1.90;;
18796;SDS011;9526;52.612;13.300;2023-07-16T08:15:32;3.50;;;2.10;;
18796;SDS011;9526;52.612;13.300;2023-07-16T08:17:56;2.85;;;1.80;;
18796;SDS011;9526;52.612;13.300;2023-07-16T08:20:21;3.38;;;2.05;;
18796;SDS011;9526;52.612;13.300;2023-07-16T08:22:44;2.60;;;1.90;;
18796;SDS011;9526;52.612;13.300;2023-07-16T08:25:08;2.65;;;1.95;;
18796;SDS011;9526;52.612;13.300;2023-07-16T08:27:32;3.25;;;2.10;;
18796;SDS011;9526;52.612;13.300;2023-07-16T08:29:56;1.95;;;1.70;;
18796;SDS011;9526;52.612;13.300;2023-07-16T08:32:22;2.45;;;2.00;;
18796;SDS011;9526;52.612;13.300;2023-07-16T08:34:45;2.13;;;1.75;;
18796;SDS011;9526;52.612;13.300;2023-07-16T08:37:09;2.15;;;1.70;;
18796;SDS011;9526;52.612;13.300;2023-07-16T08:39:33;3.95;;;2.10;;
18796;SDS011;9526;52.612;13.300;2023-07-16T08:41:57;2.80;;;2.08;;
18796;SDS011;9526;52.612;13.300;2023-07-16T08:44:21;4.25;;;2.20;;
18796;SDS011;9526;52.612;13.300;2023-07-16T08:46:45;2.65;;;2.13;;
18796;SDS011;9526;52.612;13.300;2023-07-16T08:49:10;2.30;;;1.90;;
18796;SDS011;9526;52.612;13.300;2023-07-16T08:51:34;3.25;;;2.30;;
18796;SDS011;9526;52.612;13.300;2023-07-16T08:54:00;2.35;;;2.10;;
18796;SDS011;9526;52.612;13.300;2023-07-16T08:56:24;2.58;;;2.10;;
18796;SDS011;9526;52.612;13.300;2023-07-16T08:58:48;6.10;;;2.33;;
18796;SDS011;9526;52.612;13.300;2023-07-16T09:01:12;2.50;;;2.08;;
18796;SDS011;9526;52.612;13.300;2023-07-16T09:03:42;2.63;;;2.20;;
18796;SDS011;9526;52.612;13.300;2023-07-16T09:06:06;3.63;;;2.08;;
18796;SDS011;9526;52.612;13.300;2023-07-16T09:08:30;3.70;;;2.25;;
18796;SDS011;9526;52.612;13.300;2023-07-16T09:10:54;3.17;;;1.90;;
18796;SDS011;9526;52.612;13.300;2023-07-16T09:13:19;5.47;;;2.40;;
18796;SDS011;9526;52.612;13.300;2023-07-16T09:15:50;2.95;;;2.17;;
18796;SDS011;9526;52.612;13.300;2023-07-16T09:18:19;3.13;;;2.03;;
18796;SDS011;9526;52.612;13.300;2023-07-16T09:20:43;2.47;;;2.03;;
18796;SDS011;9526;52.612;13.300;2023-07-16T09:23:09;2.53;;;2.00;;
18796;SDS011;9526;52.612;13.300;2023-07-16T09:25:33;2.47;;;2.00;;
18796;SDS011;9526;52.612;13.300;2023-07-16T09:28:01;2.60;;;2.00;;
18796;SDS011;9526;52.612;13.300;2023-07-16T09:30:30;2.88;;;1.80;;
18796;SDS011;9526;52.612;13.300;2023-07-16T09:32:55;2.92;;;1.70;;
18796;SDS011;9526;52.612;13.300;2023-07-16T09:35:18;2.55;;;1.73;;
18796;SDS011;9526;52.612;13.300;2023-07-16T09:37:42;2.80;;;2.03;;
18796;SDS011;9526;52.612;13.300;2023-07-16T09:40:10;4.03;;;1.55;;
18796;SDS011;9526;52.612;13.300;2023-07-16T09:42:36;3.38;;;1.77;;
18796;SDS011;9526;52.612;13.300;2023-07-16T09:45:01;1.98;;;1.48;;
18796;SDS011;9526;52.612;13.300;2023-07-16T09:47:26;4.90;;;1.70;;
18796;SDS011;9526;52.612;13.300;2023-07-16T09:49:50;3.13;;;1.92;;
18796;SDS011;9526;52.612;13.300;2023-07-16T09:52:13;2.28;;;1.70;;
18796;SDS011;9526;52.612;13.300;2023-07-16T09:54:37;2.22;;;1.85;;
18796;SDS011;9526;52.612;13.300;2023-07-16T09:57:04;3.00;;;2.00;;
18796;SDS011;9526;52.612;13.300;2023-07-16T09:59:31;2.20;;;1.77;;
18796;SDS011;9526;52.612;13.300;2023-07-16T10:01:56;2.60;;;1.73;;
18796;SDS011;9526;52.612;13.300;2023-07-16T10:04:20;3.53;;;1.70;;
18796;SDS011;9526;52.612;13.300;2023-07-16T10:06:51;4.75;;;1.52;;
18796;SDS011;9526;52.612;13.300;2023-07-16T10:12:08;2.90;;;1.60;;
18796;SDS011;9526;52.612;13.300;2023-07-16T10:14:39;1.83;;;1.48;;
18796;SDS011;9526;52.612;13.300;2023-07-16T10:17:05;3.33;;;1.88;;
18796;SDS011;9526;52.612;13.300;2023-07-16T10:19:28;3.38;;;1.70;;
18796;SDS011;9526;52.612;13.300;2023-07-16T10:21:52;2.25;;;1.67;;
18796;SDS011;9526;52.612;13.300;2023-07-16T10:24:16;3.50;;;1.58;;
18796;SDS011;9526;52.612;13.300;2023-07-16T10:26:41;2.38;;;1.50;;
18796;SDS011;9526;52.612;13.300;2023-07-16T10:29:06;1.90;;;1.60;;
18796;SDS011;9526;52.612;13.300;2023-07-16T10:31:29;2.38;;;1.67;;
18796;SDS011;9526;52.612;13.300;2023-07-16T10:34:00;8.13;;;2.10;;
18796;SDS011;9526;52.612;13.300;2023-07-16T10:36:26;3.28;;;1.80;;
18796;SDS011;9526;52.612;13.300;2023-07-16T10:38:50;3.25;;;1.70;;
18796;SDS011;9526;52.612;13.300;2023-07-16T10:41:13;3.35;;;1.80;;
18796;SDS011;9526;52.612;13.300;2023-07-16T10:43:37;2.88;;;1.90;;
18796;SDS011;9526;52.612;13.300;2023-07-16T10:46:04;4.82;;;1.80;;
18796;SDS011;9526;52.612;13.300;2023-07-16T10:48:29;2.85;;;1.70;;
18796;SDS011;9526;52.612;13.300;2023-07-16T10:50:53;3.03;;;1.55;;
18796;SDS011;9526;52.612;13.300;2023-07-16T10:53:17;3.28;;;2.00;;
18796;SDS011;9526;52.612;13.300;2023-07-16T10:55:42;8.00;;;1.83;;
18796;SDS011;9526;52.612;13.300;2023-07-16T10:58:06;5.10;;;1.70;;
18796;SDS011;9526;52.612;13.300;2023-07-16T11:00:30;2.70;;;1.58;;
18796;SDS011;9526;52.612;13.300;2023-07-16T11:02:55;3.28;;;1.83;;
18796;SDS011;9526;52.612;13.300;2023-07-16T11:05:19;3.95;;;1.50;;
18796;SDS011;9526;52.612;13.300;2023-07-16T11:07:43;2.38;;;1.60;;
18796;SDS011;9526;52.612;13.300;2023-07-16T11:10:14;2.85;;;1.80;;
18796;SDS011;9526;52.612;13.300;2023-07-16T11:12:38;2.25;;;1.77;;
18796;SDS011;9526;52.612;13.300;2023-07-16T11:15:02;4.15;;;2.20;;
18796;SDS011;9526;52.612;13.300;2023-07-16T11:17:27;1.70;;;1.60;;
18796;SDS011;9526;52.612;13.300;2023-07-16T11:19:52;2.42;;;1.60;;
18796;SDS011;9526;52.612;13.300;2023-07-16T11:22:17;4.22;;;1.52;;
18796;SDS011;9526;52.612;13.300;2023-07-16T11:24:41;3.33;;;2.00;;
18796;SDS011;9526;52.612;13.300;2023-07-16T11:27:12;2.45;;;1.70;;
18796;SDS011;9526;52.612;13.300;2023-07-16T11:29:37;2.33;;;1.80;;
18796;SDS011;9526;52.612;13.300;2023-07-16T11:32:00;2.47;;;1.63;;
18796;SDS011;9526;52.612;13.300;2023-07-16T11:34:24;2.58;;;1.60;;
18796;SDS011;9526;52.612;13.300;2023-07-16T11:36:49;2.63;;;1.70;;
18796;SDS011;9526;52.612;13.300;2023-07-16T11:39:13;3.15;;;1.92;;
18796;SDS011;9526;52.612;13.300;2023-07-16T11:41:37;3.50;;;1.80;;
18796;SDS011;9526;52.612;13.300;2023-07-16T11:44:01;2.22;;;1.55;;
18796;SDS011;9526;52.612;13.300;2023-07-16T11:46:25;3.13;;;1.77;;
18796;SDS011;9526;52.612;13.300;2023-07-16T11:48:54;3.85;;;2.00;;
18796;SDS011;9526;52.612;13.300;2023-07-16T11:51:17;2.47;;;1.67;;
18796;SDS011;9526;52.612;13.300;2023-07-16T11:53:42;1.70;;;1.60;;
18796;SDS011;9526;52.612;13.300;2023-07-16T11:56:06;1.83;;;1.55;;
18796;SDS011;9526;52.612;13.300;2023-07-16T11:58:31;2.53;;;1.70;;
18796;SDS011;9526;52.612;13.300;2023-07-16T12:00:54;2.95;;;1.40;;
18796;SDS011;9526;52.612;13.300;2023-07-16T12:03:18;1.70;;;1.38;;
18796;SDS011;9526;52.612;13.300;2023-07-16T12:05:42;1.83;;;1.48;;
18796;SDS011;9526;52.612;13.300;2023-07-16T12:08:14;3.28;;;1.50;;
18796;SDS011;9526;52.612;13.300;2023-07-16T12:10:39;1.95;;;1.38;;
18796;SDS011;9526;52.612;13.300;2023-07-16T12:13:03;2.72;;;1.70;;
18796;SDS011;9526;52.612;13.300;2023-07-16T12:15:26;2.35;;;1.48;;
18796;SDS011;9526;52.612;13.300;2023-07-16T12:17:50;1.83;;;1.52;;
18796;SDS011;9526;52.612;13.300;2023-07-16T12:20:14;2.70;;;1.70;;
18796;SDS011;9526;52.612;13.300;2023-07-16T12:22:37;2.08;;;1.40;;
18796;SDS011;9526;52.612;13.300;2023-07-16T12:25:01;3.03;;;1.58;;
18796;SDS011;9526;52.612;13.300;2023-07-16T12:27:26;1.92;;;1.70;;
18796;SDS011;9526;52.612;13.300;2023-07-16T12:29:50;1.77;;;1.42;;
18796;SDS011;9526;52.612;13.300;2023-07-16T12:32:14;3.40;;;1.58;;
18796;SDS011;9526;52.612;13.300;2023-07-16T12:34:38;2.47;;;1.58;;
18796;SDS011;9526;52.612;13.300;2023-07-16T12:37:02;2.55;;;1.48;;
18796;SDS011;9526;52.612;13.300;2023-07-16T12:39:26;4.38;;;1.50;;
18796;SDS011;9526;52.612;13.300;2023-07-16T12:41:50;3.08;;;1.40;;
18796;SDS011;9526;52.612;13.300;2023-07-16T12:44:15;2.10;;;1.38;;
18796;SDS011;9526;52.612;13.300;2023-07-16T12:46:39;1.83;;;1.33;;
18796;SDS011;9526;52.612;13.300;2023-07-16T12:49:03;1.40;;;1.30;;
18796;SDS011;9526;52.612;13.300;2023-07-16T12:51:26;2.20;;;1.40;;
18796;SDS011;9526;52.612;13.300;2023-07-16T12:53:50;2.40;;;1.50;;
18796;SDS011;9526;52.612;13.300;2023-07-16T12:56:14;2.65;;;1.40;;
18796;SDS011;9526;52.612;13.300;2023-07-16T12:58:38;3.05;;;1.40;;
18796;SDS011;9526;52.612;13.300;2023-07-16T13:01:03;3.92;;;1.60;;
18796;SDS011;9526;52.612;13.300;2023-07-16T13:03:27;2.03;;;1.40;;
18796;SDS011;9526;52.612;13.300;2023-07-16T13:05:50;2.70;;;1.50;;
18796;SDS011;9526;52.612;13.300;2023-07-16T13:08:14;2.67;;;1.40;;
18796;SDS011;9526;52.612;13.300;2023-07-16T13:10:38;1.52;;;1.20;;
18796;SDS011;9526;52.612;13.300;2023-07-16T13:13:03;2.58;;;1.50;;
18796;SDS011;9526;52.612;13.300;2023-07-16T13:15:27;3.03;;;1.60;;
18796;SDS011;9526;52.612;13.300;2023-07-16T13:17:52;3.80;;;1.55;;
18796;SDS011;9526;52.612;13.300;2023-07-16T13:20:17;4.43;;;1.50;;
18796;SDS011;9526;52.612;13.300;2023-07-16T13:22:41;3.00;;;1.48;;
18796;SDS011;9526;52.612;13.300;2023-07-16T13:25:05;1.52;;;1.15;;
18796;SDS011;9526;52.612;13.300;2023-07-16T13:27:29;1.63;;;1.20;;
18796;SDS011;9526;52.612;13.300;2023-07-16T13:29:53;3.13;;;1.50;;
18796;SDS011;9526;52.612;13.300;2023-07-16T13:32:17;3.38;;;1.40;;
18796;SDS011;9526;52.612;13.300;2023-07-16T13:34:42;4.18;;;1.60;;
18796;SDS011;9526;52.612;13.300;2023-07-16T13:37:06;1.42;;;1.30;;
18796;SDS011;9526;52.612;13.300;2023-07-16T13:39:29;2.90;;;1.45;;
18796;SDS011;9526;52.612;13.300;2023-07-16T13:41:53;1.63;;;1.20;;
18796;SDS011;9526;52.612;13.300;2023-07-16T13:44:33;2.50;;;1.45;;
18796;SDS011;9526;52.612;13.300;2023-07-16T13:46:57;3.42;;;1.40;;
18796;SDS011;9526;52.612;13.300;2023-07-16T13:49:20;3.33;;;1.60;;
18796;SDS011;9526;52.612;13.300;2023-07-16T13:51:45;2.30;;;1.40;;
18796;SDS011;9526;52.612;13.300;2023-07-16T13:54:10;2.67;;;1.55;;
18796;SDS011;9526;52.612;13.300;2023-07-16T13:56:34;2.53;;;1.42;;
18796;SDS011;9526;52.612;13.300;2023-07-16T13:58:58;3.08;;;1.30;;
18796;SDS011;9526;52.612;13.300;2023-07-16T14:01:22;1.75;;;1.40;;
18796;SDS011;9526;52.612;13.300;2023-07-16T14:03:46;3.22;;;1.55;;
18796;SDS011;9526;52.612;13.300;2023-07-16T14:06:10;3.00;;;1.48;;
18796;SDS011;9526;52.612;13.300;2023-07-16T14:08:35;3.30;;;1.40;;
18796;SDS011;9526;52.612;13.300;2023-07-16T14:10:58;3.00;;;1.50;;
18796;SDS011;9526;52.612;13.300;2023-07-16T14:13:22;2.70;;;1.17;;
18796;SDS011;9526;52.612;13.300;2023-07-16T14:15:46;3.40;;;1.60;;
18796;SDS011;9526;52.612;13.300;2023-07-16T14:18:09;3.00;;;1.45;;
18796;SDS011;9526;52.612;13.300;2023-07-16T14:20:33;2.13;;;1.30;;
18796;SDS011;9526;52.612;13.300;2023-07-16T14:22:57;2.95;;;1.30;;
18796;SDS011;9526;52.612;13.300;2023-07-16T14:25:23;1.10;;;1.00;;
18796;SDS011;9526;52.612;13.300;2023-07-16T14:27:46;2.20;;;1.30;;
18796;SDS011;9526;52.612;13.300;2023-07-16T14:30:10;1.80;;;1.20;;
18796;SDS011;9526;52.612;13.300;2023-07-16T14:32:34;2.22;;;1.20;;
18796;SDS011;9526;52.612;13.300;2023-07-16T14:34:58;2.63;;;1.00;;
18796;SDS011;9526;52.612;13.300;2023-07-16T14:37:22;1.40;;;1.20;;